YFC93 WSSL-WSSL
Flight info
| Callsign | YFC93 |
|---|---|
| Flight time | 0h 27m |
| Altitude | 8000 |
| Route | OMKOM DCT NYLON DCT WSSS DCT SJ DCT WSAP DCT RECHI |
| Aircraft | DA42/L-SBDGRY/S |
Departure
| Time | 2026-05-07 10:22 |
|---|---|
| Airport | Seletar Airport (WSSL) |
Arrival
| Time | 2026-05-07 10:49 |
|---|---|
| Airport | Seletar Airport (WSSL) |
| Time | Latitude | Longitude | Altitude | Speed | Heading |
|---|---|---|---|---|---|
| 2026-05-07 10:10 | 1.41453 | 103.86395 | 50 ft | 0 kts | 149° |
| 2026-05-07 10:15 | 1.41448 | 103.86398 | 50 ft | 3 kts | 147° |
| 2026-05-07 10:15 | 1.41451 | 103.86425 | 50 ft | 7 kts | 34° |
| 2026-05-07 10:15 | 1.41498 | 103.86467 | 50 ft | 12 kts | 33° |
| 2026-05-07 10:15 | 1.41517 | 103.86473 | 50 ft | 0 kts | 358° |
| 2026-05-07 10:16 | 1.41518 | 103.86473 | 50 ft | 0 kts | 0° |
| 2026-05-07 10:17 | 1.41526 | 103.86482 | 50 ft | 7 kts | 50° |
| 2026-05-07 10:17 | 1.41604 | 103.86518 | 50 ft | 18 kts | 10° |
| 2026-05-07 10:17 | 1.41686 | 103.86569 | 50 ft | 16 kts | 34° |
| 2026-05-07 10:17 | 1.41775 | 103.86627 | 50 ft | 11 kts | 32° |
| 2026-05-07 10:18 | 1.41852 | 103.86679 | 50 ft | 16 kts | 34° |
| 2026-05-07 10:18 | 1.41947 | 103.86739 | 50 ft | 16 kts | 34° |
| 2026-05-07 10:18 | 1.42036 | 103.86798 | 50 ft | 12 kts | 34° |
| 2026-05-07 10:18 | 1.42100 | 103.86839 | 50 ft | 8 kts | 33° |
| 2026-05-07 10:19 | 1.42151 | 103.86873 | 50 ft | 11 kts | 32° |
| 2026-05-07 10:19 | 1.42209 | 103.86911 | 50 ft | 11 kts | 32° |
| 2026-05-07 10:19 | 1.42285 | 103.86961 | 50 ft | 15 kts | 34° |
| 2026-05-07 10:19 | 1.42300 | 103.87020 | 50 ft | 0 kts | 124° |
| 2026-05-07 10:20 | 1.42299 | 103.87021 | 50 ft | 1 kts | 125° |
| 2026-05-07 10:20 | 1.42264 | 103.87074 | 50 ft | 15 kts | 124° |
| 2026-05-07 10:21 | 1.42177 | 103.87080 | 50 ft | 18 kts | 216° |
| 2026-05-07 10:21 | 1.41921 | 103.86920 | 66 ft | 69 kts | 206° |
| 2026-05-07 10:21 | 1.41513 | 103.86615 | 297 ft | 76 kts | 214° |
| 2026-05-07 10:21 | 1.41082 | 103.86269 | 529 ft | 79 kts | 214° |
| 2026-05-07 10:22 | 1.40654 | 103.85952 | 790 ft | 78 kts | 213° |
| 2026-05-07 10:22 | 1.40291 | 103.85548 | 1090 ft | 81 kts | 237° |
| 2026-05-07 10:22 | 1.40032 | 103.85074 | 1369 ft | 78 kts | 238° |
| 2026-05-07 10:22 | 1.39811 | 103.84574 | 1603 ft | 81 kts | 244° |
| 2026-05-07 10:23 | 1.39628 | 103.84046 | 1875 ft | 78 kts | 250° |
| 2026-05-07 10:23 | 1.39512 | 103.83506 | 2126 ft | 80 kts | 262° |
| 2026-05-07 10:23 | 1.39488 | 103.82900 | 2280 ft | 97 kts | 270° |
| 2026-05-07 10:23 | 1.39513 | 103.82176 | 2337 ft | 104 kts | 272° |
| 2026-05-07 10:24 | 1.39616 | 103.81489 | 2294 ft | 99 kts | 279° |
| 2026-05-07 10:24 | 1.39468 | 103.80775 | 2140 ft | 111 kts | 246° |
| 2026-05-07 10:24 | 1.39329 | 103.80010 | 2168 ft | 109 kts | 282° |
| 2026-05-07 10:24 | 1.39798 | 103.79478 | 2442 ft | 103 kts | 313° |
| 2026-05-07 10:25 | 1.40233 | 103.78917 | 2692 ft | 102 kts | 309° |
| 2026-05-07 10:25 | 1.40736 | 103.78409 | 2857 ft | 107 kts | 328° |
| 2026-05-07 10:25 | 1.41099 | 103.77921 | 3273 ft | 83 kts | 271° |
| 2026-05-07 10:25 | 1.40825 | 103.77474 | 3547 ft | 80 kts | 202° |
| 2026-05-07 10:26 | 1.40282 | 103.77356 | 3876 ft | 68 kts | 195° |
| 2026-05-07 10:26 | 1.39765 | 103.77235 | 4030 ft | 88 kts | 197° |
| 2026-05-07 10:26 | 1.39194 | 103.76996 | 4289 ft | 85 kts | 186° |
| 2026-05-07 10:26 | 1.38687 | 103.77207 | 4570 ft | 84 kts | 130° |
| 2026-05-07 10:27 | 1.38564 | 103.77748 | 4821 ft | 83 kts | 87° |
| 2026-05-07 10:27 | 1.38602 | 103.78323 | 5120 ft | 77 kts | 88° |
| 2026-05-07 10:27 | 1.38672 | 103.78882 | 5362 ft | 80 kts | 81° |
| 2026-05-07 10:27 | 1.38791 | 103.79414 | 5604 ft | 87 kts | 76° |
| 2026-05-07 10:28 | 1.38925 | 103.80012 | 5904 ft | 79 kts | 77° |
| 2026-05-07 10:28 | 1.39085 | 103.80522 | 6182 ft | 77 kts | 69° |
| 2026-05-07 10:28 | 1.39330 | 103.81003 | 6401 ft | 81 kts | 66° |
| 2026-05-07 10:28 | 1.39650 | 103.81548 | 6587 ft | 89 kts | 56° |
| 2026-05-07 10:29 | 1.40148 | 103.81872 | 6783 ft | 88 kts | 22° |
| 2026-05-07 10:29 | 1.40675 | 103.82078 | 6552 ft | 92 kts | 26° |
| 2026-05-07 10:37 | 1.41059 | 103.82239 | 6391 ft | 93 kts | 28° |
| 2026-05-07 10:38 | 1.41620 | 103.82520 | 6270 ft | 85 kts | 33° |
| 2026-05-07 10:38 | 1.42121 | 103.82821 | 6103 ft | 85 kts | 35° |
| 2026-05-07 10:38 | 1.42665 | 103.82878 | 5940 ft | 85 kts | 329° |
| 2026-05-07 10:38 | 1.43179 | 103.82591 | 5821 ft | 82 kts | 333° |
| 2026-05-07 10:39 | 1.43680 | 103.82342 | 5748 ft | 80 kts | 336° |
| 2026-05-07 10:39 | 1.44129 | 103.82004 | 5851 ft | 82 kts | 296° |
| 2026-05-07 10:39 | 1.44077 | 103.81418 | 5916 ft | 104 kts | 252° |
| 2026-05-07 10:39 | 1.43820 | 103.80714 | 6021 ft | 112 kts | 240° |
| 2026-05-07 10:40 | 1.43423 | 103.80015 | 6161 ft | 110 kts | 239° |
| 2026-05-07 10:40 | 1.43003 | 103.79320 | 6204 ft | 125 kts | 237° |
| 2026-05-07 10:40 | 1.42543 | 103.78555 | 6173 ft | 122 kts | 236° |
| 2026-05-07 10:40 | 1.42034 | 103.77894 | 5791 ft | 120 kts | 224° |
| 2026-05-07 10:41 | 1.41410 | 103.77480 | 5683 ft | 101 kts | 204° |
| 2026-05-07 10:41 | 1.40763 | 103.77263 | 5544 ft | 93 kts | 191° |
| 2026-05-07 10:41 | 1.40158 | 103.77308 | 5378 ft | 90 kts | 169° |
| 2026-05-07 10:41 | 1.39589 | 103.77436 | 5289 ft | 79 kts | 161° |
| 2026-05-07 10:42 | 1.39027 | 103.77624 | 4946 ft | 95 kts | 155° |
| 2026-05-07 10:42 | 1.38690 | 103.78092 | 4755 ft | 89 kts | 96° |
| 2026-05-07 10:42 | 1.38678 | 103.78758 | 4444 ft | 96 kts | 87° |
| 2026-05-07 10:42 | 1.38752 | 103.79463 | 4181 ft | 107 kts | 82° |
| 2026-05-07 10:43 | 1.38883 | 103.80187 | 3996 ft | 105 kts | 80° |
| 2026-05-07 10:43 | 1.39005 | 103.80934 | 3740 ft | 112 kts | 82° |
| 2026-05-07 10:43 | 1.39105 | 103.81686 | 3613 ft | 105 kts | 84° |
| 2026-05-07 10:43 | 1.39300 | 103.82369 | 3431 ft | 106 kts | 62° |
| 2026-05-07 10:44 | 1.39673 | 103.83022 | 3242 ft | 106 kts | 59° |
| 2026-05-07 10:44 | 1.40101 | 103.83625 | 3052 ft | 107 kts | 53° |
| 2026-05-07 10:44 | 1.40606 | 103.84159 | 2868 ft | 107 kts | 45° |
| 2026-05-07 10:44 | 1.41133 | 103.84675 | 2646 ft | 108 kts | 46° |
| 2026-05-07 10:45 | 1.41676 | 103.85157 | 2489 ft | 105 kts | 44° |
| 2026-05-07 10:45 | 1.42239 | 103.85622 | 2362 ft | 102 kts | 43° |
| 2026-05-07 10:45 | 1.42755 | 103.86080 | 2235 ft | 100 kts | 44° |
| 2026-05-07 10:45 | 1.43245 | 103.86562 | 2102 ft | 98 kts | 47° |
| 2026-05-07 10:46 | 1.43356 | 103.87207 | 1869 ft | 102 kts | 112° |
| 2026-05-07 10:46 | 1.42920 | 103.87701 | 1743 ft | 97 kts | 165° |
| 2026-05-07 10:46 | 1.42294 | 103.87529 | 1624 ft | 96 kts | 211° |
| 2026-05-07 10:46 | 1.41731 | 103.87105 | 1419 ft | 102 kts | 217° |
| 2026-05-07 10:47 | 1.41209 | 103.86604 | 1226 ft | 102 kts | 226° |
| 2026-05-07 10:47 | 1.40789 | 103.86065 | 1106 ft | 99 kts | 250° |
| 2026-05-07 10:47 | 1.41016 | 103.85442 | 970 ft | 104 kts | 313° |
| 2026-05-07 10:47 | 1.41645 | 103.85210 | 850 ft | 92 kts | 17° |
| 2026-05-07 10:48 | 1.42162 | 103.85501 | 765 ft | 84 kts | 43° |
| 2026-05-07 10:48 | 1.42620 | 103.85902 | 721 ft | 98 kts | 46° |
| 2026-05-07 10:48 | 1.43101 | 103.86450 | 679 ft | 98 kts | 67° |
| 2026-05-07 10:48 | 1.43156 | 103.87039 | 586 ft | 77 kts | 117° |
| 2026-05-07 10:49 | 1.42789 | 103.87357 | 365 ft | 76 kts | 178° |
| 2026-05-07 10:49 | 1.42285 | 103.87143 | 123 ft | 80 kts | 208° |
| 2026-05-07 10:49 | 1.41849 | 103.86863 | 49 ft | 67 kts | 198° |
| 2026-05-07 10:49 | 1.41609 | 103.86713 | 49 ft | 26 kts | 204° |
| 2026-05-07 10:50 | 1.41504 | 103.86621 | 51 ft | 17 kts | 271° |
| 2026-05-07 10:50 | 1.41550 | 103.86546 | 50 ft | 5 kts | 305° |
| 2026-05-07 10:50 | 1.41573 | 103.86494 | 50 ft | 11 kts | 257° |
| 2026-05-07 10:50 | 1.41519 | 103.86455 | 50 ft | 10 kts | 214° |
| 2026-05-07 10:51 | 1.41477 | 103.86417 | 50 ft | 8 kts | 270° |
| 2026-05-07 10:51 | 1.41461 | 103.86405 | 50 ft | 4 kts | 149° |
| 2026-05-07 10:51 | 1.41458 | 103.86407 | 50 ft | 0 kts | 150° |